Time;durP1;ratioP1;P1;durP2;ratioP2;P2;SDS_P1;SDS_P2;PMS_P1;PMS_P2;Temp;Humidity;BMP_temperature;BMP_pressure;BME280_temperature;BME280_humidity;BME280_pressure;Samples;Min_cycle;Max_cycle;Signal;HPM_P1;HPM_P2
2022/01/06 00:00:02;;;;;;;4.40;1.98;;;;;;;;;;5071729;28;20680;-73
2022/01/06 00:02:29;;;;;;;8.25;2.30;;;;;;;;;;5070933;28;20679;-71
2022/01/06 00:04:56;;;;;;;6.22;2.05;;;;;;;;;;5072201;28;20233;-79
2022/01/06 00:07:23;;;;;;;9.77;3.70;;;;;;;;;;5067795;28;20297;-73
2022/01/06 00:09:52;;;;;;;7.55;1.95;;;;;;;;;;5072182;28;20197;-73
2022/01/06 00:12:24;;;;;;;10.85;2.47;;;;;;;;;;5071394;28;20576;-73
2022/01/06 00:14:57;;;;;;;4.97;2.25;;;;;;;;;;5069313;28;20205;-73
2022/01/06 00:17:38;;;;;;;3.83;1.65;;;;;;;;;;5068532;28;20213;-72
2022/01/06 00:23:23;;;;;;;7.78;2.63;;;;;;;;;;5065585;28;20670;-73
2022/01/06 00:25:52;;;;;;;7.78;2.22;;;;;;;;;;5071880;28;20664;-73
2022/01/06 00:28:21;;;;;;;4.30;2.00;;;;;;;;;;5071430;28;20225;-73
2022/01/06 00:30:49;;;;;;;10.55;4.05;;;;;;;;;;5068568;28;20190;-72
2022/01/06 00:33:16;;;;;;;4.97;2.05;;;;;;;;;;5068735;28;20221;-73
2022/01/06 00:35:43;;;;;;;6.03;2.55;;;;;;;;;;5066002;28;20202;-73
2022/01/06 00:38:10;;;;;;;4.82;2.20;;;;;;;;;;5069824;28;20636;-74
2022/01/06 00:40:38;;;;;;;6.85;2.30;;;;;;;;;;5072312;28;20199;-73
2022/01/06 00:43:07;;;;;;;6.90;2.95;;;;;;;;;;5069662;28;20622;-73
2022/01/06 00:45:36;;;;;;;5.65;2.03;;;;;;;;;;5066658;28;20201;-74
2022/01/06 00:48:03;;;;;;;7.03;2.30;;;;;;;;;;5069252;28;20232;-73
2022/01/06 00:50:30;;;;;;;2.50;1.42;;;;;;;;;;5070654;28;20206;-74
2022/01/06 00:52:57;;;;;;;3.10;2.13;;;;;;;;;;5064447;28;20194;-73
2022/01/06 00:55:24;;;;;;;8.10;2.03;;;;;;;;;;5070697;28;20194;-74
2022/01/06 00:57:55;;;;;;;13.45;3.08;;;;;;;;;;5071914;28;20202;-73
2022/01/06 01:00:27;;;;;;;3.90;1.90;;;;;;;;;;5068817;28;20198;-73
2022/01/06 01:02:54;;;;;;;6.45;2.08;;;;;;;;;;5067313;28;20190;-73
2022/01/06 01:05:21;;;;;;;10.57;2.60;;;;;;;;;;5072042;28;20210;-73
2022/01/06 01:07:48;;;;;;;4.68;1.50;;;;;;;;;;5074572;28;20684;-73
2022/01/06 01:10:15;;;;;;;5.63;1.85;;;;;;;;;;5069726;28;20191;-73
2022/01/06 01:12:46;;;;;;;6.15;2.88;;;;;;;;;;5071682;28;20205;-74
2022/01/06 01:15:19;;;;;;;7.03;2.80;;;;;;;;;;5072928;28;20198;-74
2022/01/06 01:17:48;;;;;;;8.45;2.42;;;;;;;;;;5071430;28;20202;-73
2022/01/06 01:20:15;;;;;;;9.38;1.85;;;;;;;;;;5070924;28;20210;-73
2022/01/06 01:22:43;;;;;;;5.88;1.77;;;;;;;;;;5056178;28;20646;-72
2022/01/06 01:25:10;;;;;;;8.57;2.22;;;;;;;;;;5061989;28;20194;-72
2022/01/06 01:27:40;;;;;;;10.70;2.35;;;;;;;;;;5073115;28;20229;-72
2022/01/06 01:30:11;;;;;;;3.65;1.50;;;;;;;;;;5063824;28;20255;-72
2022/01/06 01:32:39;;;;;;;8.60;2.10;;;;;;;;;;5070468;28;20228;-72
2022/01/06 01:35:09;;;;;;;5.53;2.47;;;;;;;;;;5082909;28;20255;-72
2022/01/06 01:37:37;;;;;;;11.45;3.95;;;;;;;;;;5056058;28;20207;-72
2022/01/06 01:40:05;;;;;;;3.88;1.90;;;;;;;;;;5068970;28;20194;-72
2022/01/06 01:42:33;;;;;;;8.90;2.30;;;;;;;;;;5080991;28;20205;-73
2022/01/06 01:45:02;;;;;;;5.07;2.33;;;;;;;;;;5062338;28;20205;-72
2022/01/06 01:47:32;;;;;;;3.13;1.80;;;;;;;;;;5072485;28;20214;-72
2022/01/06 01:50:10;;;;;;;8.55;2.20;;;;;;;;;;5070015;28;20817;-72
2022/01/06 01:52:39;;;;;;;6.70;1.92;;;;;;;;;;5065093;28;20208;-72
2022/01/06 01:55:06;;;;;;;12.73;2.85;;;;;;;;;;5078651;28;20202;-72
2022/01/06 01:57:34;;;;;;;5.88;1.95;;;;;;;;;;5063178;28;20206;-72
2022/01/06 02:00:01;;;;;;;6.55;2.40;;;;;;;;;;5066704;28;20199;-73
2022/01/06 02:02:29;;;;;;;5.63;1.92;;;;;;;;;;5076892;28;20194;-72
2022/01/06 02:04:56;;;;;;;5.85;2.10;;;;;;;;;;5071850;28;20198;-73
2022/01/06 02:07:23;;;;;;;4.72;2.55;;;;;;;;;;5056696;28;20226;-73
2022/01/06 02:09:51;;;;;;;5.15;2.10;;;;;;;;;;5070031;28;20388;-73
2022/01/06 02:12:25;;;;;;;9.85;2.92;;;;;;;;;;5074874;28;20204;-72
2022/01/06 02:14:52;;;;;;;4.78;2.22;;;;;;;;;;5076387;28;20220;-73
2022/01/06 02:17:19;;;;;;;6.68;2.00;;;;;;;;;;5070180;28;20565;-72
2022/01/06 02:19:56;;;;;;;5.63;2.00;;;;;;;;;;5067353;28;20193;-72
2022/01/06 02:22:23;;;;;;;4.22;2.05;;;;;;;;;;5066443;28;20205;-73
2022/01/06 02:24:51;;;;;;;6.38;2.08;;;;;;;;;;5082150;28;20201;-72
2022/01/06 02:27:20;;;;;;;4.35;1.90;;;;;;;;;;5073058;28;20214;-74
2022/01/06 02:29:47;;;;;;;4.50;1.40;;;;;;;;;;5081959;28;20216;-73
2022/01/06 02:32:16;;;;;;;4.25;2.15;;;;;;;;;;5072378;28;20200;-75
2022/01/06 02:34:43;;;;;;;5.85;2.40;;;;;;;;;;5068542;28;20202;-75
2022/01/06 02:37:12;;;;;;;13.38;2.75;;;;;;;;;;5058571;28;20205;-73
2022/01/06 02:39:39;;;;;;;5.38;2.70;;;;;;;;;;5065672;28;20198;-73
2022/01/06 02:42:06;;;;;;;11.57;3.00;;;;;;;;;;5069027;28;20198;-74
2022/01/06 02:44:37;;;;;;;6.30;1.70;;;;;;;;;;5067214;28;20554;-73
2022/01/06 02:47:04;;;;;;;6.03;2.05;;;;;;;;;;5066978;28;20224;-73
2022/01/06 02:49:31;;;;;;;5.13;1.95;;;;;;;;;;5069168;28;20197;-73
2022/01/06 02:51:58;;;;;;;7.03;1.90;;;;;;;;;;5064728;28;20660;-74
2022/01/06 02:54:27;;;;;;;5.72;1.95;;;;;;;;;;5066733;28;20200;-73
2022/01/06 02:56:54;;;;;;;5.57;2.03;;;;;;;;;;5070109;28;20197;-73
2022/01/06 02:59:21;;;;;;;9.27;2.38;;;;;;;;;;5069946;28;20194;-73
2022/01/06 03:01:48;;;;;;;2.75;1.30;;;;;;;;;;5068195;28;21377;-74
2022/01/06 03:04:15;;;;;;;6.70;2.35;;;;;;;;;;5066585;28;20191;-73
2022/01/06 03:06:42;;;;;;;3.55;2.20;;;;;;;;;;5066476;28;20205;-74
2022/01/06 03:09:10;;;;;;;10.85;1.77;;;;;;;;;;5070080;28;20198;-73
2022/01/06 03:11:42;;;;;;;6.25;2.33;;;;;;;;;;5074437;28;20201;-73
2022/01/06 03:14:09;;;;;;;8.57;2.10;;;;;;;;;;5071926;28;20198;-73
2022/01/06 03:16:36;;;;;;;3.38;1.80;;;;;;;;;;5080448;28;20194;-73
2022/01/06 03:19:03;;;;;;;6.60;2.00;;;;;;;;;;5074657;28;20209;-72
2022/01/06 03:21:30;;;;;;;7.00;1.90;;;;;;;;;;5080972;28;20191;-73
2022/01/06 03:23:57;;;;;;;3.50;2.03;;;;;;;;;;5080253;28;20255;-73
2022/01/06 03:26:24;;;;;;;8.48;2.63;;;;;;;;;;5079969;28;20192;-74
2022/01/06 03:28:53;;;;;;;4.95;1.75;;;;;;;;;;5090522;28;20221;-73
2022/01/06 03:31:20;;;;;;;4.63;1.95;;;;;;;;;;5060039;28;20186;-73
2022/01/06 03:33:47;;;;;;;4.38;1.70;;;;;;;;;;5072813;28;20194;-74
2022/01/06 03:36:14;;;;;;;5.43;2.17;;;;;;;;;;5081759;28;20190;-73
2022/01/06 03:38:42;;;;;;;7.55;2.38;;;;;;;;;;5053738;28;20203;-72
2022/01/06 03:41:09;;;;;;;8.15;2.88;;;;;;;;;;5070170;28;20190;-72
2022/01/06 03:43:36;;;;;;;6.97;2.25;;;;;;;;;;5073468;28;20204;-73
2022/01/06 03:46:04;;;;;;;3.17;1.98;;;;;;;;;;5064363;28;20198;-73
2022/01/06 03:48:32;;;;;;;4.80;2.30;;;;;;;;;;5072361;28;20554;-72
2022/01/06 03:50:59;;;;;;;4.93;2.03;;;;;;;;;;5070901;28;20194;-73
2022/01/06 03:53:26;;;;;;;3.92;1.77;;;;;;;;;;5059636;28;20198;-73
2022/01/06 03:55:53;;;;;;;4.75;1.70;;;;;;;;;;5069021;28;20198;-73
2022/01/06 03:58:20;;;;;;;10.32;2.75;;;;;;;;;;5074934;28;20190;-72
2022/01/06 04:00:47;;;;;;;7.25;2.22;;;;;;;;;;5069670;28;20198;-72
2022/01/06 04:03:15;;;;;;;7.05;2.22;;;;;;;;;;5073407;28;20201;-71
2022/01/06 04:05:42;;;;;;;3.65;1.60;;;;;;;;;;5074128;28;20204;-71
2022/01/06 04:08:09;;;;;;;5.78;1.73;;;;;;;;;;5055772;28;20230;-71
2022/01/06 04:10:36;;;;;;;6.50;2.35;;;;;;;;;;5069065;28;20607;-72
2022/01/06 04:13:04;;;;;;;8.68;2.50;;;;;;;;;;5075562;28;20228;-72
2022/01/06 04:15:31;;;;;;;4.50;1.63;;;;;;;;;;5073811;28;20205;-72
2022/01/06 04:17:58;;;;;;;4.28;1.45;;;;;;;;;;5069185;28;20198;-70
2022/01/06 04:20:26;;;;;;;9.55;2.28;;;;;;;;;;5072037;28;20202;-70
2022/01/06 04:22:53;;;;;;;5.15;1.75;;;;;;;;;;5057295;28;20213;-70
2022/01/06 04:25:20;;;;;;;7.45;3.05;;;;;;;;;;5072551;28;20186;-70
2022/01/06 04:27:47;;;;;;;5.40;2.30;;;;;;;;;;5076255;28;20237;-70
2022/01/06 04:30:15;;;;;;;6.18;1.80;;;;;;;;;;5060934;28;20207;-70
2022/01/06 04:32:42;;;;;;;5.38;2.10;;;;;;;;;;5063690;28;20568;-71
2022/01/06 04:35:10;;;;;;;4.63;1.73;;;;;;;;;;5071352;28;20541;-70
2022/01/06 04:37:38;;;;;;;4.68;2.72;;;;;;;;;;5066438;28;20194;-70
2022/01/06 04:40:06;;;;;;;6.80;2.05;;;;;;;;;;5069509;28;20584;-70
2022/01/06 04:42:33;;;;;;;6.63;1.95;;;;;;;;;;5069665;28;20305;-72
2022/01/06 04:45:01;;;;;;;6.75;2.00;;;;;;;;;;5069341;28;20235;-72
2022/01/06 04:47:28;;;;;;;4.05;1.50;;;;;;;;;;5071564;28;20214;-71
2022/01/06 04:49:55;;;;;;;4.70;1.98;;;;;;;;;;5066042;28;20202;-73
2022/01/06 04:52:22;;;;;;;14.55;2.30;;;;;;;;;;5077019;28;20198;-74
2022/01/06 04:54:50;;;;;;;2.95;1.50;;;;;;;;;;5077442;28;20195;-74
2022/01/06 04:57:17;;;;;;;4.97;2.90;;;;;;;;;;5072753;28;20645;-73
2022/01/06 04:59:44;;;;;;;3.13;1.80;;;;;;;;;;5073722;28;20236;-72
2022/01/06 05:02:12;;;;;;;10.25;2.35;;;;;;;;;;5070109;28;20690;-72
2022/01/06 05:04:39;;;;;;;4.97;3.67;;;;;;;;;;5073226;28;20213;-72
2022/01/06 05:07:06;;;;;;;3.95;2.15;;;;;;;;;;5061683;28;20563;-72
2022/01/06 05:09:33;;;;;;;4.43;2.25;;;;;;;;;;5080008;28;20585;-72
2022/01/06 05:12:01;;;;;;;5.55;2.25;;;;;;;;;;5070220;28;20202;-71
2022/01/06 05:14:28;;;;;;;7.68;2.80;;;;;;;;;;5074060;28;20565;-72
2022/01/06 05:16:56;;;;;;;5.57;2.30;;;;;;;;;;5069528;28;20671;-71
2022/01/06 05:19:23;;;;;;;6.38;1.63;;;;;;;;;;5076196;28;20236;-72
2022/01/06 05:21:51;;;;;;;6.78;1.70;;;;;;;;;;5064180;28;20198;-72
2022/01/06 05:24:19;;;;;;;7.47;2.13;;;;;;;;;;5070746;28;20201;-72
2022/01/06 05:26:46;;;;;;;4.80;1.60;;;;;;;;;;5074231;28;20213;-72
2022/01/06 05:29:14;;;;;;;6.35;2.63;;;;;;;;;;5070955;28;20222;-71
2022/01/06 05:31:42;;;;;;;3.50;1.92;;;;;;;;;;5079442;28;20198;-72
2022/01/06 05:34:09;;;;;;;5.75;2.10;;;;;;;;;;5072073;28;20190;-72
2022/01/06 05:36:36;;;;;;;5.80;2.10;;;;;;;;;;5073904;28;20660;-73
2022/01/06 05:39:04;;;;;;;4.40;2.60;;;;;;;;;;5072974;28;20197;-72
2022/01/06 05:41:31;;;;;;;8.80;2.08;;;;;;;;;;5073988;28;20217;-73
2022/01/06 05:43:58;;;;;;;10.85;2.90;;;;;;;;;;5069711;28;20191;-72
2022/01/06 05:46:27;;;;;;;5.80;1.88;;;;;;;;;;5066219;28;20553;-72
2022/01/06 05:48:54;;;;;;;7.40;4.47;;;;;;;;;;5068949;28;20222;-73
2022/01/06 05:51:21;;;;;;;7.50;2.35;;;;;;;;;;5071065;28;20195;-73
2022/01/06 05:53:50;;;;;;;10.70;3.67;;;;;;;;;;5075619;28;20214;-73
2022/01/06 05:56:17;;;;;;;5.75;2.72;;;;;;;;;;5073297;28;20633;-72
2022/01/06 05:58:44;;;;;;;3.92;2.10;;;;;;;;;;5069367;28;20676;-73
2022/01/06 06:01:11;;;;;;;6.80;2.25;;;;;;;;;;5058748;28;20202;-72
2022/01/06 06:03:39;;;;;;;9.15;1.67;;;;;;;;;;5065787;28;20201;-73
2022/01/06 06:06:06;;;;;;;8.55;2.45;;;;;;;;;;5072942;28;20651;-73
2022/01/06 06:08:33;;;;;;;2.85;2.00;;;;;;;;;;5056151;28;20230;-70
2022/01/06 06:11:00;;;;;;;5.25;2.80;;;;;;;;;;5080313;28;20190;-70
2022/01/06 06:13:27;;;;;;;6.25;1.80;;;;;;;;;;5067052;28;20205;-70
2022/01/06 06:15:54;;;;;;;6.00;3.15;;;;;;;;;;5070021;28;20209;-70
2022/01/06 06:18:21;;;;;;;7.00;2.38;;;;;;;;;;5073604;28;20201;-70
2022/01/06 06:20:50;;;;;;;8.07;3.42;;;;;;;;;;5075051;28;20198;-70
2022/01/06 06:23:17;;;;;;;7.15;2.20;;;;;;;;;;5067520;28;20204;-72
2022/01/06 06:25:44;;;;;;;4.40;2.25;;;;;;;;;;5072338;28;20198;-72
2022/01/06 06:28:11;;;;;;;3.15;2.58;;;;;;;;;;5071120;28;20218;-72
2022/01/06 06:30:38;;;;;;;6.35;2.05;;;;;;;;;;5074330;28;20190;-73
2022/01/06 06:33:05;;;;;;;11.32;2.38;;;;;;;;;;5070438;28;20197;-72
2022/01/06 06:35:32;;;;;;;3.92;1.95;;;;;;;;;;5075550;28;20285;-72
2022/01/06 06:38:01;;;;;;;4.85;1.85;;;;;;;;;;5068743;28;20969;-73
2022/01/06 06:40:28;;;;;;;6.10;2.40;;;;;;;;;;5072475;28;20649;-72
2022/01/06 06:42:56;;;;;;;6.53;1.88;;;;;;;;;;5072528;28;20190;-72
2022/01/06 06:45:23;;;;;;;7.80;2.70;;;;;;;;;;5070046;28;20680;-73
2022/01/06 06:47:50;;;;;;;11.60;1.80;;;;;;;;;;5076612;28;20203;-73
2022/01/06 06:50:17;;;;;;;4.97;1.90;;;;;;;;;;5076207;28;20217;-73
2022/01/06 06:52:44;;;;;;;4.22;1.77;;;;;;;;;;5067124;28;20255;-72
2022/01/06 06:55:14;;;;;;;8.63;2.30;;;;;;;;;;5067710;28;20209;-72
2022/01/06 06:57:41;;;;;;;11.98;2.70;;;;;;;;;;5053213;28;20213;-72
2022/01/06 07:00:09;;;;;;;10.10;2.50;;;;;;;;;;5066956;28;20779;-72
2022/01/06 07:02:36;;;;;;;3.08;2.60;;;;;;;;;;5076824;28;20190;-72
2022/01/06 07:05:04;;;;;;;5.40;2.30;;;;;;;;;;5073801;28;20197;-72
2022/01/06 07:07:31;;;;;;;5.85;2.70;;;;;;;;;;5072297;28;20208;-72
2022/01/06 07:09:58;;;;;;;4.57;1.90;;;;;;;;;;5080742;28;20232;-72
2022/01/06 07:12:26;;;;;;;6.00;2.00;;;;;;;;;;5066081;28;20191;-72
2022/01/06 07:14:53;;;;;;;6.57;2.22;;;;;;;;;;5065875;28;20205;-73
2022/01/06 07:17:20;;;;;;;5.43;2.53;;;;;;;;;;5075022;28;20197;-72
2022/01/06 07:19:47;;;;;;;13.10;3.58;;;;;;;;;;5069322;28;21057;-72
2022/01/06 07:22:14;;;;;;;7.97;3.33;;;;;;;;;;5072810;28;20197;-73
2022/01/06 07:24:41;;;;;;;5.65;2.22;;;;;;;;;;5073044;28;20201;-72
2022/01/06 07:27:09;;;;;;;11.65;4.55;;;;;;;;;;5072333;28;20214;-72
2022/01/06 07:29:37;;;;;;;8.13;2.47;;;;;;;;;;5065812;28;20221;-73
2022/01/06 07:32:04;;;;;;;6.82;2.40;;;;;;;;;;5067480;28;20198;-72
2022/01/06 07:34:31;;;;;;;4.45;2.60;;;;;;;;;;5073482;28;20193;-73
2022/01/06 07:36:59;;;;;;;7.07;1.80;;;;;;;;;;5062736;28;20191;-72
2022/01/06 07:39:26;;;;;;;11.60;2.42;;;;;;;;;;5067486;28;20197;-72
2022/01/06 07:41:54;;;;;;;6.97;3.38;;;;;;;;;;5062812;28;20209;-73
2022/01/06 07:44:21;;;;;;;5.80;1.90;;;;;;;;;;5068626;28;20191;-73
2022/01/06 07:46:49;;;;;;;7.35;2.45;;;;;;;;;;5068617;28;20205;-73
2022/01/06 07:49:16;;;;;;;3.22;2.00;;;;;;;;;;5071135;28;20218;-73
2022/01/06 07:51:43;;;;;;;4.85;2.08;;;;;;;;;;5067697;28;20456;-72
2022/01/06 07:54:11;;;;;;;4.30;2.03;;;;;;;;;;5072352;28;20231;-72
2022/01/06 07:56:38;;;;;;;6.50;1.83;;;;;;;;;;5074605;28;20194;-73
2022/01/06 07:59:06;;;;;;;4.65;2.28;;;;;;;;;;5086152;28;20208;-73
2022/01/06 08:01:33;;;;;;;7.10;2.25;;;;;;;;;;5085707;28;20564;-73
2022/01/06 08:04:02;;;;;;;6.05;2.28;;;;;;;;;;5079687;28;20213;-74
2022/01/06 08:06:29;;;;;;;3.88;1.95;;;;;;;;;;5060201;28;20191;-74
2022/01/06 08:08:56;;;;;;;4.20;2.40;;;;;;;;;;5080426;28;20225;-74
2022/01/06 08:11:23;;;;;;;6.43;2.10;;;;;;;;;;5083451;28;20194;-74
2022/01/06 08:13:51;;;;;;;4.63;2.00;;;;;;;;;;5071750;28;20197;-73
2022/01/06 08:16:18;;;;;;;4.25;1.80;;;;;;;;;;5071724;28;20668;-79
2022/01/06 08:18:45;;;;;;;6.28;3.08;;;;;;;;;;5071177;28;20201;-78
2022/01/06 08:21:13;;;;;;;3.33;2.45;;;;;;;;;;5063207;28;20284;-77
2022/01/06 08:23:40;;;;;;;8.25;1.90;;;;;;;;;;5064897;28;20225;-77
2022/01/06 08:26:08;;;;;;;9.95;2.35;;;;;;;;;;5076669;28;20199;-77
2022/01/06 08:28:35;;;;;;;4.88;1.98;;;;;;;;;;5086591;28;20638;-77
2022/01/06 08:31:02;;;;;;;6.97;2.60;;;;;;;;;;5084414;28;20213;-76
2022/01/06 08:33:29;;;;;;;9.18;2.78;;;;;;;;;;5083942;28;20186;-72
2022/01/06 08:35:56;;;;;;;11.15;2.83;;;;;;;;;;5070824;28;20372;-72
2022/01/06 08:38:25;;;;;;;8.13;2.90;;;;;;;;;;5065983;28;20210;-70
2022/01/06 08:40:52;;;;;;;5.45;2.35;;;;;;;;;;5067620;28;20201;-70
2022/01/06 08:43:20;;;;;;;4.60;2.10;;;;;;;;;;5063724;28;20202;-73
2022/01/06 08:45:47;;;;;;;6.43;1.80;;;;;;;;;;5074716;28;20193;-70
2022/01/06 08:48:14;;;;;;;6.47;2.33;;;;;;;;;;5071467;28;20198;-73
2022/01/06 08:50:41;;;;;;;3.47;1.92;;;;;;;;;;5073694;28;20221;-72
2022/01/06 08:53:08;;;;;;;6.25;2.33;;;;;;;;;;5082094;28;20657;-72
2022/01/06 08:55:37;;;;;;;9.70;2.65;;;;;;;;;;5066502;28;20564;-73
2022/01/06 08:58:05;;;;;;;5.63;2.20;;;;;;;;;;5068940;28;20235;-71
2022/01/06 09:00:32;;;;;;;4.07;2.08;;;;;;;;;;5074994;28;20202;-71
2022/01/06 09:02:59;;;;;;;8.05;2.90;;;;;;;;;;5064281;28;20194;-70
2022/01/06 09:05:26;;;;;;;6.22;2.15;;;;;;;;;;5056882;28;20565;-72
2022/01/06 09:07:53;;;;;;;8.13;3.05;;;;;;;;;;5071956;28;20201;-71
2022/01/06 09:10:23;;;;;;;7.05;2.83;;;;;;;;;;5048653;28;20248;-71
2022/01/06 09:12:51;;;;;;;9.10;1.90;;;;;;;;;;5071980;28;20738;-72
2022/01/06 09:15:18;;;;;;;6.50;2.03;;;;;;;;;;5059980;28;20522;-71
2022/01/06 09:17:45;;;;;;;4.88;2.10;;;;;;;;;;5064776;28;20620;-71
2022/01/06 09:20:13;;;;;;;5.35;1.92;;;;;;;;;;5066819;28;20201;-72
2022/01/06 09:22:40;;;;;;;8.15;2.58;;;;;;;;;;5074006;28;20193;-71
2022/01/06 09:25:08;;;;;;;4.55;2.55;;;;;;;;;;5078650;28;20194;-71
2022/01/06 09:27:35;;;;;;;6.13;2.72;;;;;;;;;;5075653;28;20226;-71
2022/01/06 09:30:05;;;;;;;6.03;1.70;;;;;;;;;;5064504;28;20309;-71
2022/01/06 09:32:32;;;;;;;3.88;1.77;;;;;;;;;;5068777;28;20206;-72
2022/01/06 09:34:59;;;;;;;5.20;2.08;;;;;;;;;;5072415;28;20209;-72
2022/01/06 09:37:26;;;;;;;4.95;2.47;;;;;;;;;;5062884;28;20203;-72
2022/01/06 09:39:53;;;;;;;3.40;2.15;;;;;;;;;;5060765;28;20453;-72
2022/01/06 09:42:21;;;;;;;4.40;1.70;;;;;;;;;;5068521;28;20201;-72
2022/01/06 09:44:48;;;;;;;6.97;2.10;;;;;;;;;;5062815;28;20895;-72
2022/01/06 09:47:17;;;;;;;6.13;2.50;;;;;;;;;;5081180;28;20193;-72
2022/01/06 09:49:45;;;;;;;10.10;2.60;;;;;;;;;;5065801;28;20217;-71
2022/01/06 09:52:12;;;;;;;6.05;2.20;;;;;;;;;;5082052;28;20684;-71
2022/01/06 09:54:40;;;;;;;4.30;2.15;;;;;;;;;;5066780;28;20195;-72
2022/01/06 09:57:07;;;;;;;5.60;2.10;;;;;;;;;;5065343;28;20194;-72
2022/01/06 09:59:35;;;;;;;10.30;2.50;;;;;;;;;;5064442;28;20692;-72
2022/01/06 10:02:02;;;;;;;4.72;1.95;;;;;;;;;;5077320;28;20583;-72
2022/01/06 10:04:30;;;;;;;3.22;1.92;;;;;;;;;;5068441;28;20558;-72
2022/01/06 10:07:01;;;;;;;13.38;2.70;;;;;;;;;;5059441;28;20576;-71
2022/01/06 10:09:28;;;;;;;8.05;3.40;;;;;;;;;;5065859;28;20228;-72
2022/01/06 10:11:57;;;;;;;6.07;2.00;;;;;;;;;;5063825;28;20843;-68
2022/01/06 10:14:31;;;;;;;5.90;2.65;;;;;;;;;;5061557;28;20227;-78
2022/01/06 10:16:59;;;;;;;4.43;2.10;;;;;;;;;;5068108;28;20267;-72
2022/01/06 10:19:26;;;;;;;6.55;2.10;;;;;;;;;;5064509;28;20214;-73
2022/01/06 10:21:58;;;;;;;4.88;2.00;;;;;;;;;;5057825;28;20194;-72
2022/01/06 10:24:26;;;;;;;5.75;2.30;;;;;;;;;;5063618;28;20202;-72
2022/01/06 10:26:55;;;;;;;5.43;1.98;;;;;;;;;;5064185;28;20218;-72
2022/01/06 10:29:23;;;;;;;6.43;2.45;;;;;;;;;;5068007;28;20202;-72
2022/01/06 10:31:50;;;;;;;4.90;2.53;;;;;;;;;;5072608;28;20205;-72
2022/01/06 10:34:17;;;;;;;9.23;2.40;;;;;;;;;;5068210;28;20198;-71
2022/01/06 10:36:48;;;;;;;5.45;1.92;;;;;;;;;;5063439;28;20198;-73
2022/01/06 10:39:16;;;;;;;3.83;1.88;;;;;;;;;;5061505;28;20204;-72
2022/01/06 10:41:43;;;;;;;4.28;2.17;;;;;;;;;;5068887;28;20193;-72
2022/01/06 10:44:12;;;;;;;10.02;2.42;;;;;;;;;;5063505;28;20202;-73
2022/01/06 10:46:40;;;;;;;4.38;2.08;;;;;;;;;;5061911;28;20684;-73
2022/01/06 10:49:08;;;;;;;6.50;2.58;;;;;;;;;;5063570;28;20200;-71
2022/01/06 10:51:37;;;;;;;4.75;2.55;;;;;;;;;;5064150;28;20199;-71
2022/01/06 10:54:05;;;;;;;4.35;1.95;;;;;;;;;;5051155;28;20689;-73
2022/01/06 10:56:33;;;;;;;6.07;2.78;;;;;;;;;;5063336;28;20584;-74
2022/01/06 10:59:00;;;;;;;3.30;2.03;;;;;;;;;;5071651;28;20209;-73
2022/01/06 11:01:28;;;;;;;6.43;2.85;;;;;;;;;;5055213;28;20214;-73
2022/01/06 11:03:55;;;;;;;8.57;2.78;;;;;;;;;;5066147;28;20194;-74
2022/01/06 11:06:22;;;;;;;3.65;1.92;;;;;;;;;;5057505;28;20195;-73
2022/01/06 11:08:51;;;;;;;8.23;2.25;;;;;;;;;;5059258;28;20209;-74
2022/01/06 11:11:31;;;;;;;2.80;2.03;;;;;;;;;;5063179;28;20222;-73
2022/01/06 11:14:00;;;;;;;3.38;2.20;;;;;;;;;;5062627;28;20204;-72
2022/01/06 11:16:27;;;;;;;10.30;2.25;;;;;;;;;;5058126;28;20658;-72
2022/01/06 11:18:55;;;;;;;4.50;2.08;;;;;;;;;;5062155;28;20194;-73
2022/01/06 11:21:24;;;;;;;8.60;2.60;;;;;;;;;;5062211;28;20194;-74
2022/01/06 11:24:01;;;;;;;6.03;2.03;;;;;;;;;;5056204;28;20236;-72
2022/01/06 11:26:29;;;;;;;4.63;2.05;;;;;;;;;;5046452;28;20223;-74
2022/01/06 11:28:58;;;;;;;4.63;2.58;;;;;;;;;;5062857;28;20817;-74
2022/01/06 11:31:27;;;;;;;6.85;2.15;;;;;;;;;;5062159;28;20574;-74
2022/01/06 11:33:56;;;;;;;2.55;2.13;;;;;;;;;;5068533;28;20209;-74
2022/01/06 11:36:24;;;;;;;4.65;1.95;;;;;;;;;;5066690;28;20879;-74
2022/01/06 11:38:53;;;;;;;4.53;2.55;;;;;;;;;;5052089;28;20201;-73
2022/01/06 11:41:24;;;;;;;4.18;2.05;;;;;;;;;;5065870;28;20199;-72
2022/01/06 11:43:57;;;;;;;11.05;2.67;;;;;;;;;;5068331;28;20560;-72
2022/01/06 11:46:24;;;;;;;6.82;2.35;;;;;;;;;;5067817;28;20293;-69
2022/01/06 11:48:53;;;;;;;6.47;2.33;;;;;;;;;;5068161;28;20392;-72
2022/01/06 11:51:28;;;;;;;5.15;1.90;;;;;;;;;;5068709;28;20486;-72
2022/01/06 11:53:56;;;;;;;6.45;2.45;;;;;;;;;;5060115;28;20210;-71
2022/01/06 11:56:23;;;;;;;8.80;2.17;;;;;;;;;;5056946;28;20299;-71
2022/01/06 11:59:01;;;;;;;8.02;3.00;;;;;;;;;;5066909;28;20198;-72
2022/01/06 12:01:28;;;;;;;6.65;1.80;;;;;;;;;;5066832;28;20198;-73
2022/01/06 12:03:57;;;;;;;6.45;2.83;;;;;;;;;;5067445;28;20213;-73
2022/01/06 12:06:26;;;;;;;3.88;2.97;;;;;;;;;;5066194;28;20201;-72
2022/01/06 12:08:53;;;;;;;6.38;2.85;;;;;;;;;;5068748;28;20213;-73
2022/01/06 12:11:21;;;;;;;9.07;3.10;;;;;;;;;;5068630;28;20218;-73
2022/01/06 12:13:48;;;;;;;6.15;3.17;;;;;;;;;;5067519;28;20218;-73
2022/01/06 12:16:24;;;;;;;11.07;2.85;;;;;;;;;;5063484;28;20209;-71
2022/01/06 12:18:52;;;;;;;8.50;3.30;;;;;;;;;;5067322;28;20222;-72
2022/01/06 12:21:20;;;;;;;3.40;2.05;;;;;;;;;;5065677;28;20203;-72
2022/01/06 12:23:48;;;;;;;4.75;2.63;;;;;;;;;;5050496;28;20405;-73
2022/01/06 12:26:15;;;;;;;8.73;2.72;;;;;;;;;;5065520;28;20230;-72
2022/01/06 12:28:47;;;;;;;4.70;1.83;;;;;;;;;;5066252;28;20195;-73
2022/01/06 12:31:21;;;;;;;27.33;5.35;;;;;;;;;;5061601;28;20696;-74
2022/01/06 12:33:49;;;;;;;65.57;10.43;;;;;;;;;;5069231;28;20195;-74
2022/01/06 12:36:17;;;;;;;13.15;4.90;;;;;;;;;;5065577;28;20835;-73
2022/01/06 12:38:46;;;;;;;15.27;4.53;;;;;;;;;;5062041;28;20199;-74
2022/01/06 12:41:14;;;;;;;17.17;5.60;;;;;;;;;;5069908;28;20198;-73
2022/01/06 12:43:42;;;;;;;17.60;4.93;;;;;;;;;;5066177;28;20199;-72
2022/01/06 12:46:10;;;;;;;12.40;4.30;;;;;;;;;;5052591;28;20199;-70
2022/01/06 12:48:39;;;;;;;13.18;5.03;;;;;;;;;;5071326;28;20187;-70
2022/01/06 12:51:06;;;;;;;15.20;5.82;;;;;;;;;;5069766;28;20226;-73
2022/01/06 12:53:34;;;;;;;7.47;3.72;;;;;;;;;;5067850;28;20217;-72
2022/01/06 12:56:03;;;;;;;10.05;4.40;;;;;;;;;;5070146;28;20207;-71
2022/01/06 12:58:31;;;;;;;11.05;4.35;;;;;;;;;;5068981;28;20190;-71
2022/01/06 13:00:59;;;;;;;13.02;4.03;;;;;;;;;;5063537;28;20306;-72
2022/01/06 13:03:27;;;;;;;14.05;4.43;;;;;;;;;;5051785;28;20211;-72
2022/01/06 13:05:54;;;;;;;14.70;4.93;;;;;;;;;;5066335;28;20278;-70
2022/01/06 13:08:21;;;;;;;12.90;3.95;;;;;;;;;;5067371;28;20202;-69
2022/01/06 13:10:48;;;;;;;12.02;5.45;;;;;;;;;;5070433;28;20210;-70
2022/01/06 13:13:16;;;;;;;13.68;4.22;;;;;;;;;;5059635;28;20187;-71
2022/01/06 13:15:43;;;;;;;10.93;4.03;;;;;;;;;;5067960;28;20191;-70
2022/01/06 13:18:10;;;;;;;14.05;4.30;;;;;;;;;;5068582;28;20191;-70
2022/01/06 13:20:40;;;;;;;11.50;4.68;;;;;;;;;;5064685;28;20197;-72
2022/01/06 13:26:04;;;;;;;20.60;4.65;;;;;;;;;;5066561;28;20198;-73
2022/01/06 13:28:33;;;;;;;12.43;4.18;;;;;;;;;;5064872;28;20207;-73
2022/01/06 13:31:00;;;;;;;12.32;4.50;;;;;;;;;;5057500;28;20309;-73
2022/01/06 13:33:29;;;;;;;14.15;4.45;;;;;;;;;;5070707;28;20201;-73
2022/01/06 13:35:57;;;;;;;8.70;3.25;;;;;;;;;;5068634;28;20201;-73
2022/01/06 13:38:25;;;;;;;10.57;4.45;;;;;;;;;;5065607;28;20238;-73
2022/01/06 13:40:53;;;;;;;10.90;3.90;;;;;;;;;;5068145;28;20202;-73
2022/01/06 13:43:22;;;;;;;8.77;3.53;;;;;;;;;;5070612;28;20190;-72
2022/01/06 13:45:51;;;;;;;6.55;3.35;;;;;;;;;;5064167;28;20400;-73
2022/01/06 13:48:39;;;;;;;8.02;3.28;;;;;;;;;;5067699;28;20252;-72
2022/01/06 13:51:12;;;;;;;9.38;4.35;;;;;;;;;;5069106;28;20256;-73
2022/01/06 13:53:42;;;;;;;8.98;3.70;;;;;;;;;;5065082;28;20671;-73
2022/01/06 13:56:10;;;;;;;6.78;3.53;;;;;;;;;;5072360;28;20198;-72
2022/01/06 13:58:37;;;;;;;7.72;3.63;;;;;;;;;;5075079;28;20205;-72
2022/01/06 14:01:06;;;;;;;6.78;3.95;;;;;;;;;;5064515;28;20202;-72
2022/01/06 14:03:34;;;;;;;8.98;3.88;;;;;;;;;;5070173;28;20195;-72
2022/01/06 14:06:02;;;;;;;9.18;5.05;;;;;;;;;;5063760;28;20194;-72
2022/01/06 14:08:29;;;;;;;6.47;3.80;;;;;;;;;;5065409;28;20198;-72
2022/01/06 14:10:56;;;;;;;6.95;3.65;;;;;;;;;;5065113;28;20215;-71
2022/01/06 14:13:24;;;;;;;9.98;4.65;;;;;;;;;;5066400;28;20213;-72
2022/01/06 14:15:51;;;;;;;5.75;3.45;;;;;;;;;;5063094;28;20961;-71
2022/01/06 14:18:19;;;;;;;12.98;4.75;;;;;;;;;;5063146;28;20190;-71
2022/01/06 14:20:47;;;;;;;17.00;5.18;;;;;;;;;;5060230;28;20213;-72
2022/01/06 14:23:14;;;;;;;9.43;4.00;;;;;;;;;;5061442;28;20201;-72
2022/01/06 14:25:41;;;;;;;11.00;5.68;;;;;;;;;;5062761;28;20286;-71
2022/01/06 14:28:08;;;;;;;13.88;4.65;;;;;;;;;;5062092;28;20203;-71
2022/01/06 14:30:35;;;;;;;8.35;4.55;;;;;;;;;;5060697;28;20217;-71
2022/01/06 14:33:04;;;;;;;11.95;5.07;;;;;;;;;;5063096;28;20198;-71
2022/01/06 14:35:33;;;;;;;9.88;5.03;;;;;;;;;;5068280;28;20229;-71
2022/01/06 14:38:00;;;;;;;6.28;4.57;;;;;;;;;;5053880;28;20190;-71
2022/01/06 14:40:27;;;;;;;8.35;4.60;;;;;;;;;;5063147;28;20206;-71
2022/01/06 14:42:56;;;;;;;17.38;5.32;;;;;;;;;;5053959;28;20202;-70
2022/01/06 14:45:23;;;;;;;12.77;4.78;;;;;;;;;;5058731;28;20206;-71
2022/01/06 14:47:50;;;;;;;11.63;4.93;;;;;;;;;;5064685;28;20224;-69
2022/01/06 14:50:17;;;;;;;12.70;5.70;;;;;;;;;;5063285;28;20213;-69